Airfield :
LOGIN :

Register | Disclaimer

   EN    FR    IT 

 










Legend :    VFR   Marginal VFR   IFR   Intensive IFR   Very Intensive IFR
Visi :
Ceiling :
>= 8 km
>= 3000ft
5 to 8 km
1000 to 3000 ft
1500m to 5 km
500 to 1000 ft
800 to 1500m
200 to 500 ft
< 800m
< 200 ft
Symbols :   Thunderstorms  Fog  Heavy snow  Heavy precipitations  Wind > 20 kt
SIGMETs :     Misc.  Thunderstorms  Icing  Turbulence  Mountain Waves  Volcanic Ashes






- Airport Elevation : 308 ft
- IATA code : POZ


EPPO - Poznan-Lawica

CURRENT METAR :
  • 242300Z 26007KT CAVOK 10/08 Q1022

EXPIRED METARs :
  • 242230Z 25006KT CAVOK 10/08 Q1023
  • 242200Z 26007KT CAVOK 10/08 Q1023
  • 242130Z 27008KT CAVOK 10/08 Q1023
  • 242100Z 27008KT 9999 SCT046 10/08 Q1023
  • 242030Z 26009KT CAVOK 11/08 Q1023

TAF TAF EPPO
Valid from the 24 at 18:00 until the 25 at 18:00 UTC


241730Z 2418/2518 27008KT 9999 SCT045
TEMPO 2418/2422 SHRA SCT014 BKN030CB
BECMG 2422/2424 4000 -RA BR BKN007 OVC014
TEMPO 2500/2506 1500 -RA DZ BR BKN002
BECMG 2507/2509 33013KT 9999 BKN030
TEMPO 2509/2518 SHRA BKN020CB
PROB40
TEMPO 2510/2517 VRB22G33KT 4000 TSRA BKN014CB



MET'MAP, your aeronautical weather chart ! - Copyright ORBIFLY December 2007 - Disclaimer

ORBIFLY MET'MAP TEAM :

Programming & Development : Alexandra Zaïnal
Concept & original design : Baudouin d'Aumeries
Assistance for programming : Marc-Olivier Méhu
Technical & hardware support : Manuel Goepfert

Contact : metmap@orbifly.com




SOURCES & CREDITS :

   NOAA